sensor_id;sensor_type;location;lat;lon;timestamp;temperature;humidity
13496;DHT22;6820;49.374;8.452;2023-02-28T00:03:14;2.04;99.99
13496;DHT22;6820;49.374;8.452;2023-02-28T00:07:16;1.93;99.99
13496;DHT22;6820;49.374;8.452;2023-02-28T00:11:18;1.88;99.99
13496;DHT22;6820;49.374;8.452;2023-02-28T00:15:20;1.81;99.99
13496;DHT22;6820;49.374;8.452;2023-02-28T00:19:23;1.71;99.99
13496;DHT22;6820;49.374;8.452;2023-02-28T00:23:25;1.60;99.99
13496;DHT22;6820;49.374;8.452;2023-02-28T00:27:27;1.56;99.99
13496;DHT22;6820;49.374;8.452;2023-02-28T00:31:29;1.54;99.99
13496;DHT22;6820;49.374;8.452;2023-02-28T00:35:31;1.47;99.99
13496;DHT22;6820;49.374;8.452;2023-02-28T00:39:33;1.42;99.99
13496;DHT22;6820;49.374;8.452;2023-02-28T00:43:37;1.38;99.99
13496;DHT22;6820;49.374;8.452;2023-02-28T00:47:39;1.29;99.99
13496;DHT22;6820;49.374;8.452;2023-02-28T00:51:41;1.25;99.99
13496;DHT22;6820;49.374;8.452;2023-02-28T00:55:43;1.24;99.99
13496;DHT22;6820;49.374;8.452;2023-02-28T00:59:45;1.21;99.99
13496;DHT22;6820;49.374;8.452;2023-02-28T01:03:46;1.17;99.99
13496;DHT22;6820;49.374;8.452;2023-02-28T01:07:48;1.17;99.99
13496;DHT22;6820;49.374;8.452;2023-02-28T01:11:49;1.11;99.99
13496;DHT22;6820;49.374;8.452;2023-02-28T01:15:53;1.10;99.99
13496;DHT22;6820;49.374;8.452;2023-02-28T01:19:56;1.08;99.99
13496;DHT22;6820;49.374;8.452;2023-02-28T01:23:59;1.04;99.99
13496;DHT22;6820;49.374;8.452;2023-02-28T01:28:01;1.02;99.99
13496;DHT22;6820;49.374;8.452;2023-02-28T01:32:02;1.00;99.99
13496;DHT22;6820;49.374;8.452;2023-02-28T01:36:05;0.98;99.99
13496;DHT22;6820;49.374;8.452;2023-02-28T01:40:10;0.98;99.99
13496;DHT22;6820;49.374;8.452;2023-02-28T01:49:00;0.93;99.99
13496;DHT22;6820;49.374;8.452;2023-02-28T01:53:31;0.90;99.99
13496;DHT22;6820;49.374;8.452;2023-02-28T01:57:45;0.86;99.99
13496;DHT22;6820;49.374;8.452;2023-02-28T02:01:50;0.82;99.99
13496;DHT22;6820;49.374;8.452;2023-02-28T02:05:53;0.77;99.99
13496;DHT22;6820;49.374;8.452;2023-02-28T02:10:02;0.75;99.99
13496;DHT22;6820;49.374;8.452;2023-02-28T02:31:18;0.62;99.99
13496;DHT22;6820;49.374;8.452;2023-02-28T02:39:53;0.59;99.99
13496;DHT22;6820;49.374;8.452;2023-02-28T02:48:12;0.52;99.99
13496;DHT22;6820;49.374;8.452;2023-02-28T02:52:18;0.52;99.99
13496;DHT22;6820;49.374;8.452;2023-02-28T02:56:27;0.48;99.99
13496;DHT22;6820;49.374;8.452;2023-02-28T03:00:41;0.45;99.99
13496;DHT22;6820;49.374;8.452;2023-02-28T03:04:56;0.45;99.99
13496;DHT22;6820;49.374;8.452;2023-02-28T03:09:03;0.48;99.99
13496;DHT22;6820;49.374;8.452;2023-02-28T03:17:36;0.45;99.99
13496;DHT22;6820;49.374;8.452;2023-02-28T03:22:06;0.41;99.99
13496;DHT22;6820;49.374;8.452;2023-02-28T03:26:34;0.37;99.99
13496;DHT22;6820;49.374;8.452;2023-02-28T03:30:51;0.37;99.99
13496;DHT22;6820;49.374;8.452;2023-02-28T03:35:07;0.37;99.99
13496;DHT22;6820;49.374;8.452;2023-02-28T03:39:17;0.30;99.99
13496;DHT22;6820;49.374;8.452;2023-02-28T03:43:24;0.28;99.99
13496;DHT22;6820;49.374;8.452;2023-02-28T03:51:59;0.22;99.99
13496;DHT22;6820;49.374;8.452;2023-02-28T03:56:06;0.20;99.99
13496;DHT22;6820;49.374;8.452;2023-02-28T04:00:17;0.19;99.99
13496;DHT22;6820;49.374;8.452;2023-02-28T04:04:29;0.17;99.99
13496;DHT22;6820;49.374;8.452;2023-02-28T04:08:31;0.16;99.99
13496;DHT22;6820;49.374;8.452;2023-02-28T04:12:33;0.13;99.99
13496;DHT22;6820;49.374;8.452;2023-02-28T04:16:35;0.15;99.99
13496;DHT22;6820;49.374;8.452;2023-02-28T04:20:39;0.16;99.99
13496;DHT22;6820;49.374;8.452;2023-02-28T04:24:40;0.13;99.99
13496;DHT22;6820;49.374;8.452;2023-02-28T04:28:42;0.13;99.99
13496;DHT22;6820;49.374;8.452;2023-02-28T04:32:44;0.13;99.99
13496;DHT22;6820;49.374;8.452;2023-02-28T04:36:46;0.05;99.99
13496;DHT22;6820;49.374;8.452;2023-02-28T04:41:03;0.07;99.99
13496;DHT22;6820;49.374;8.452;2023-02-28T04:45:05;0.05;99.99
13496;DHT22;6820;49.374;8.452;2023-02-28T04:49:08;0.04;99.99
13496;DHT22;6820;49.374;8.452;2023-02-28T04:53:11;0.01;99.99
13496;DHT22;6820;49.374;8.452;2023-02-28T04:57:13;-0.03;99.99
13496;DHT22;6820;49.374;8.452;2023-02-28T05:01:19;-0.01;99.99
13496;DHT22;6820;49.374;8.452;2023-02-28T05:05:24;-0.02;99.99
13496;DHT22;6820;49.374;8.452;2023-02-28T05:09:25;-0.01;99.99
13496;DHT22;6820;49.374;8.452;2023-02-28T05:13:27;0.02;99.99
13496;DHT22;6820;49.374;8.452;2023-02-28T05:17:29;0.05;99.99
13496;DHT22;6820;49.374;8.452;2023-02-28T05:21:31;0.15;99.99
13496;DHT22;6820;49.374;8.452;2023-02-28T05:25:35;0.19;99.99
13496;DHT22;6820;49.374;8.452;2023-02-28T05:29:36;0.23;99.99
13496;DHT22;6820;49.374;8.452;2023-02-28T05:33:42;0.26;99.99
13496;DHT22;6820;49.374;8.452;2023-02-28T05:37:44;0.22;99.99
13496;DHT22;6820;49.374;8.452;2023-02-28T05:41:46;0.23;99.99
13496;DHT22;6820;49.374;8.452;2023-02-28T05:45:47;0.30;99.99
13496;DHT22;6820;49.374;8.452;2023-02-28T05:49:49;0.34;99.99
13496;DHT22;6820;49.374;8.452;2023-02-28T05:53:51;0.37;99.99
13496;DHT22;6820;49.374;8.452;2023-02-28T05:57:52;0.35;99.99
13496;DHT22;6820;49.374;8.452;2023-02-28T06:01:54;0.35;99.99
13496;DHT22;6820;49.374;8.452;2023-02-28T06:05:56;0.38;99.99
13496;DHT22;6820;49.374;8.452;2023-02-28T06:09:58;0.37;99.99
13496;DHT22;6820;49.374;8.452;2023-02-28T06:14:00;0.38;99.99
13496;DHT22;6820;49.374;8.452;2023-02-28T06:18:02;0.40;99.99
13496;DHT22;6820;49.374;8.452;2023-02-28T06:22:04;0.41;99.99
13496;DHT22;6820;49.374;8.452;2023-02-28T06:26:05;0.45;99.99
13496;DHT22;6820;49.374;8.452;2023-02-28T06:30:07;0.56;99.99
13496;DHT22;6820;49.374;8.452;2023-02-28T06:34:09;0.60;99.99
13496;DHT22;6820;49.374;8.452;2023-02-28T06:38:12;0.67;99.99
13496;DHT22;6820;49.374;8.452;2023-02-28T06:42:14;0.70;99.99
13496;DHT22;6820;49.374;8.452;2023-02-28T06:46:15;0.77;99.99
13496;DHT22;6820;49.374;8.452;2023-02-28T06:50:17;0.82;99.99
13496;DHT22;6820;49.374;8.452;2023-02-28T06:54:20;0.84;99.99
13496;DHT22;6820;49.374;8.452;2023-02-28T06:58:22;0.92;99.99
13496;DHT22;6820;49.374;8.452;2023-02-28T07:02:23;0.96;99.99
13496;DHT22;6820;49.374;8.452;2023-02-28T07:06:25;0.96;99.99
13496;DHT22;6820;49.374;8.452;2023-02-28T07:10:27;1.08;99.99
13496;DHT22;6820;49.374;8.452;2023-02-28T07:14:28;1.13;99.99
13496;DHT22;6820;49.374;8.452;2023-02-28T07:18:30;1.16;99.99
13496;DHT22;6820;49.374;8.452;2023-02-28T07:22:31;1.18;99.99
13496;DHT22;6820;49.374;8.452;2023-02-28T07:26:33;1.24;99.99
13496;DHT22;6820;49.374;8.452;2023-02-28T07:30:38;1.29;99.99
13496;DHT22;6820;49.374;8.452;2023-02-28T07:34:39;1.38;99.99
13496;DHT22;6820;49.374;8.452;2023-02-28T07:38:41;1.46;99.99
13496;DHT22;6820;49.374;8.452;2023-02-28T07:42:49;1.57;99.99
13496;DHT22;6820;49.374;8.452;2023-02-28T07:46:51;1.68;99.99
13496;DHT22;6820;49.374;8.452;2023-02-28T07:50:57;1.77;99.99
13496;DHT22;6820;49.374;8.452;2023-02-28T07:55:00;1.85;99.99
13496;DHT22;6820;49.374;8.452;2023-02-28T07:59:02;1.88;99.99
13496;DHT22;6820;49.374;8.452;2023-02-28T08:03:03;1.95;99.99
13496;DHT22;6820;49.374;8.452;2023-02-28T08:07:05;2.05;99.99
13496;DHT22;6820;49.374;8.452;2023-02-28T08:11:06;2.23;99.99
13496;DHT22;6820;49.374;8.452;2023-02-28T08:15:08;2.40;99.99
13496;DHT22;6820;49.374;8.452;2023-02-28T08:19:10;2.55;99.99
13496;DHT22;6820;49.374;8.452;2023-02-28T08:23:11;2.59;99.99
13496;DHT22;6820;49.374;8.452;2023-02-28T08:27:13;2.63;99.99
13496;DHT22;6820;49.374;8.452;2023-02-28T08:31:15;2.63;99.99
13496;DHT22;6820;49.374;8.452;2023-02-28T08:35:18;2.58;99.99
13496;DHT22;6820;49.374;8.452;2023-02-28T08:39:19;2.58;99.99
13496;DHT22;6820;49.374;8.452;2023-02-28T08:43:21;2.56;99.99
13496;DHT22;6820;49.374;8.452;2023-02-28T08:47:22;2.59;99.99
13496;DHT22;6820;49.374;8.452;2023-02-28T08:51:24;2.68;99.99
13496;DHT22;6820;49.374;8.452;2023-02-28T08:55:29;2.71;99.99
13496;DHT22;6820;49.374;8.452;2023-02-28T08:59:30;2.77;99.99
13496;DHT22;6820;49.374;8.452;2023-02-28T09:03:33;2.80;99.99
13496;DHT22;6820;49.374;8.452;2023-02-28T09:07:35;2.95;99.99
13496;DHT22;6820;49.374;8.452;2023-02-28T09:11:36;3.05;99.99
13496;DHT22;6820;49.374;8.452;2023-02-28T09:15:38;3.15;99.99
13496;DHT22;6820;49.374;8.452;2023-02-28T09:19:40;3.15;99.99
13496;DHT22;6820;49.374;8.452;2023-02-28T09:23:42;3.22;99.99
13496;DHT22;6820;49.374;8.452;2023-02-28T09:27:45;3.33;99.99
13496;DHT22;6820;49.374;8.452;2023-02-28T09:31:46;3.33;99.99
13496;DHT22;6820;49.374;8.452;2023-02-28T09:35:48;3.42;99.99
13496;DHT22;6820;49.374;8.452;2023-02-28T09:39:51;3.59;99.99
13496;DHT22;6820;49.374;8.452;2023-02-28T09:43:56;3.72;99.99
13496;DHT22;6820;49.374;8.452;2023-02-28T09:48:03;3.82;99.99
13496;DHT22;6820;49.374;8.452;2023-02-28T09:52:13;3.88;99.99
13496;DHT22;6820;49.374;8.452;2023-02-28T09:56:21;3.96;99.99
13496;DHT22;6820;49.374;8.452;2023-02-28T10:00:42;4.08;99.99
13496;DHT22;6820;49.374;8.452;2023-02-28T10:09:03;4.26;99.99
13496;DHT22;6820;49.374;8.452;2023-02-28T10:13:33;4.42;99.99
13496;DHT22;6820;49.374;8.452;2023-02-28T10:17:39;4.46;99.99
13496;DHT22;6820;49.374;8.452;2023-02-28T10:22:03;4.47;99.99
13496;DHT22;6820;49.374;8.452;2023-02-28T10:26:13;4.68;99.99
13496;DHT22;6820;49.374;8.452;2023-02-28T10:30:19;4.83;99.99
13496;DHT22;6820;49.374;8.452;2023-02-28T10:34:21;5.04;99.99
13496;DHT22;6820;49.374;8.452;2023-02-28T10:38:24;5.20;99.99
13496;DHT22;6820;49.374;8.452;2023-02-28T10:42:29;5.44;99.99
13496;DHT22;6820;49.374;8.452;2023-02-28T10:46:31;5.70;99.99
13496;DHT22;6820;49.374;8.452;2023-02-28T10:50:37;5.85;99.99
13496;DHT22;6820;49.374;8.452;2023-02-28T10:54:45;6.03;99.99
13496;DHT22;6820;49.374;8.452;2023-02-28T10:59:03;6.24;99.99
13496;DHT22;6820;49.374;8.452;2023-02-28T11:03:33;6.16;99.99
13496;DHT22;6820;49.374;8.452;2023-02-28T11:07:36;6.11;99.99
13496;DHT22;6820;49.374;8.452;2023-02-28T11:11:53;6.17;99.99
13496;DHT22;6820;49.374;8.452;2023-02-28T11:15:59;6.17;99.99
13496;DHT22;6820;49.374;8.452;2023-02-28T11:20:04;6.25;99.99
13496;DHT22;6820;49.374;8.452;2023-02-28T11:28:34;6.19;99.99
13496;DHT22;6820;49.374;8.452;2023-02-28T11:32:37;6.08;99.99
13496;DHT22;6820;49.374;8.452;2023-02-28T11:36:49;6.08;99.99
13496;DHT22;6820;49.374;8.452;2023-02-28T11:57:57;6.05;99.99
13496;DHT22;6820;49.374;8.452;2023-02-28T12:02:21;5.98;99.99
13496;DHT22;6820;49.374;8.452;2023-02-28T12:15:24;6.25;99.99
13496;DHT22;6820;49.374;8.452;2023-02-28T12:28:43;7.05;99.99
13496;DHT22;6820;49.374;8.452;2023-02-28T12:32:49;6.93;99.99
13496;DHT22;6820;49.374;8.452;2023-02-28T12:36:58;7.04;99.99
13496;DHT22;6820;49.374;8.452;2023-02-28T12:41:03;7.07;99.99
13496;DHT22;6820;49.374;8.452;2023-02-28T12:45:19;7.11;99.99
13496;DHT22;6820;49.374;8.452;2023-02-28T12:49:25;7.14;99.99
13496;DHT22;6820;49.374;8.452;2023-02-28T12:53:47;7.08;99.99
13496;DHT22;6820;49.374;8.452;2023-02-28T13:02:48;6.89;99.99
13496;DHT22;6820;49.374;8.452;2023-02-28T13:11:48;7.15;99.99
13496;DHT22;6820;49.374;8.452;2023-02-28T13:16:02;7.23;99.99
13496;DHT22;6820;49.374;8.452;2023-02-28T13:20:20;7.26;99.99
13496;DHT22;6820;49.374;8.452;2023-02-28T13:37:36;7.79;99.99
13496;DHT22;6820;49.374;8.452;2023-02-28T13:41:44;7.69;99.99
13496;DHT22;6820;49.374;8.452;2023-02-28T14:03:14;8.10;99.99
13496;DHT22;6820;49.374;8.452;2023-02-28T14:07:22;8.25;99.99
13496;DHT22;6820;49.374;8.452;2023-02-28T14:11:32;8.40;99.99
13496;DHT22;6820;49.374;8.452;2023-02-28T14:20:01;8.58;99.99
13496;DHT22;6820;49.374;8.452;2023-02-28T14:24:16;8.36;99.99
13496;DHT22;6820;49.374;8.452;2023-02-28T14:33:31;7.95;99.99
13496;DHT22;6820;49.374;8.452;2023-02-28T14:37:47;7.95;99.99
13496;DHT22;6820;49.374;8.452;2023-02-28T14:41:51;8.03;99.99
13496;DHT22;6820;49.374;8.452;2023-02-28T14:45:57;7.89;99.99
13496;DHT22;6820;49.374;8.452;2023-02-28T14:50:03;7.99;99.99
13496;DHT22;6820;49.374;8.452;2023-02-28T14:54:05;7.79;99.99
13496;DHT22;6820;49.374;8.452;2023-02-28T14:58:20;7.85;99.99
13496;DHT22;6820;49.374;8.452;2023-02-28T15:02:24;7.85;99.99
13496;DHT22;6820;49.374;8.452;2023-02-28T15:06:27;7.81;99.99
13496;DHT22;6820;49.374;8.452;2023-02-28T15:10:31;7.81;99.99
13496;DHT22;6820;49.374;8.452;2023-02-28T15:14:33;7.73;99.99
13496;DHT22;6820;49.374;8.452;2023-02-28T15:22:54;7.60;99.99
13496;DHT22;6820;49.374;8.452;2023-02-28T15:26:58;7.55;99.99
13496;DHT22;6820;49.374;8.452;2023-02-28T15:31:03;7.52;99.99
13496;DHT22;6820;49.374;8.452;2023-02-28T15:35:27;7.24;99.99
13496;DHT22;6820;49.374;8.452;2023-02-28T15:39:30;7.09;99.99
13496;DHT22;6820;49.374;8.452;2023-02-28T15:43:41;7.00;99.99
13496;DHT22;6820;49.374;8.452;2023-02-28T15:47:44;6.94;99.99
13496;DHT22;6820;49.374;8.452;2023-02-28T15:51:48;6.82;99.99
13496;DHT22;6820;49.374;8.452;2023-02-28T15:56:03;6.79;99.99
13496;DHT22;6820;49.374;8.452;2023-02-28T16:00:09;6.86;99.99
13496;DHT22;6820;49.374;8.452;2023-02-28T16:04:18;6.78;99.99
13496;DHT22;6820;49.374;8.452;2023-02-28T16:08:20;6.71;99.99
13496;DHT22;6820;49.374;8.452;2023-02-28T16:12:25;6.54;99.99
13496;DHT22;6820;49.374;8.452;2023-02-28T16:16:29;6.48;99.99
13496;DHT22;6820;49.374;8.452;2023-02-28T16:20:32;6.32;99.99
13496;DHT22;6820;49.374;8.452;2023-02-28T16:24:33;6.21;99.99
13496;DHT22;6820;49.374;8.452;2023-02-28T16:28:36;6.17;99.99
13496;DHT22;6820;49.374;8.452;2023-02-28T16:32:39;6.05;99.99
13496;DHT22;6820;49.374;8.452;2023-02-28T16:36:41;5.99;99.99
13496;DHT22;6820;49.374;8.452;2023-02-28T16:40:42;5.87;99.99
13496;DHT22;6820;49.374;8.452;2023-02-28T16:44:44;5.77;99.99
13496;DHT22;6820;49.374;8.452;2023-02-28T16:48:47;5.69;99.99
13496;DHT22;6820;49.374;8.452;2023-02-28T16:52:52;5.66;99.99
13496;DHT22;6820;49.374;8.452;2023-02-28T16:56:55;5.58;99.99
13496;DHT22;6820;49.374;8.452;2023-02-28T17:00:57;5.55;99.99
13496;DHT22;6820;49.374;8.452;2023-02-28T17:04:58;5.49;99.99
13496;DHT22;6820;49.374;8.452;2023-02-28T17:09:00;5.42;99.99
13496;DHT22;6820;49.374;8.452;2023-02-28T17:13:02;5.38;99.99
13496;DHT22;6820;49.374;8.452;2023-02-28T17:17:15;5.35;99.99
13496;DHT22;6820;49.374;8.452;2023-02-28T17:21:19;5.33;99.99
13496;DHT22;6820;49.374;8.452;2023-02-28T17:25:21;5.26;99.99
13496;DHT22;6820;49.374;8.452;2023-02-28T17:29:23;5.22;99.99
13496;DHT22;6820;49.374;8.452;2023-02-28T17:33:25;5.14;99.99
13496;DHT22;6820;49.374;8.452;2023-02-28T17:37:27;5.14;99.99
13496;DHT22;6820;49.374;8.452;2023-02-28T17:41:29;5.11;99.99
13496;DHT22;6820;49.374;8.452;2023-02-28T17:45:31;5.06;99.99
13496;DHT22;6820;49.374;8.452;2023-02-28T17:49:35;5.05;99.99
13496;DHT22;6820;49.374;8.452;2023-02-28T17:53:37;5.06;99.99
13496;DHT22;6820;49.374;8.452;2023-02-28T17:57:39;5.02;99.99
13496;DHT22;6820;49.374;8.452;2023-02-28T18:01:43;4.99;99.99
13496;DHT22;6820;49.374;8.452;2023-02-28T18:05:44;4.96;99.99
13496;DHT22;6820;49.374;8.452;2023-02-28T18:09:46;4.94;99.99
13496;DHT22;6820;49.374;8.452;2023-02-28T18:13:48;4.86;99.99
13496;DHT22;6820;49.374;8.452;2023-02-28T18:17:52;4.86;99.99
13496;DHT22;6820;49.374;8.452;2023-02-28T18:21:53;4.84;99.99
13496;DHT22;6820;49.374;8.452;2023-02-28T18:25:55;4.80;99.99
13496;DHT22;6820;49.374;8.452;2023-02-28T18:29:57;4.75;99.99
13496;DHT22;6820;49.374;8.452;2023-02-28T18:33:58;4.69;99.99
13496;DHT22;6820;49.374;8.452;2023-02-28T18:38:05;4.64;99.99
13496;DHT22;6820;49.374;8.452;2023-02-28T18:42:10;4.57;99.99
13496;DHT22;6820;49.374;8.452;2023-02-28T18:46:12;4.54;99.99
13496;DHT22;6820;49.374;8.452;2023-02-28T18:50:15;4.51;99.99
13496;DHT22;6820;49.374;8.452;2023-02-28T18:54:17;4.50;99.99
13496;DHT22;6820;49.374;8.452;2023-02-28T18:58:19;4.46;99.99
13496;DHT22;6820;49.374;8.452;2023-02-28T19:02:20;4.44;99.99
13496;DHT22;6820;49.374;8.452;2023-02-28T19:06:22;4.42;99.99
13496;DHT22;6820;49.374;8.452;2023-02-28T19:10:24;4.32;99.99
13496;DHT22;6820;49.374;8.452;2023-02-28T19:14:25;4.31;99.99
13496;DHT22;6820;49.374;8.452;2023-02-28T19:18:27;4.29;99.99
13496;DHT22;6820;49.374;8.452;2023-02-28T19:22:28;4.25;99.99
13496;DHT22;6820;49.374;8.452;2023-02-28T19:26:30;4.21;99.99
13496;DHT22;6820;49.374;8.452;2023-02-28T19:30:32;4.18;99.99
13496;DHT22;6820;49.374;8.452;2023-02-28T19:34:33;4.16;99.99
13496;DHT22;6820;49.374;8.452;2023-02-28T19:38:35;4.10;99.99
13496;DHT22;6820;49.374;8.452;2023-02-28T19:42:37;4.04;99.99
13496;DHT22;6820;49.374;8.452;2023-02-28T19:46:38;4.00;99.99
13496;DHT22;6820;49.374;8.452;2023-02-28T19:50:40;3.95;99.99
13496;DHT22;6820;49.374;8.452;2023-02-28T19:54:42;3.92;99.99
13496;DHT22;6820;49.374;8.452;2023-02-28T19:58:43;3.93;99.99
13496;DHT22;6820;49.374;8.452;2023-02-28T20:02:45;3.93;99.99
13496;DHT22;6820;49.374;8.452;2023-02-28T20:06:48;3.89;99.99
13496;DHT22;6820;49.374;8.452;2023-02-28T20:10:50;3.89;99.99
13496;DHT22;6820;49.374;8.452;2023-02-28T20:14:52;3.86;99.99
13496;DHT22;6820;49.374;8.452;2023-02-28T20:18:59;3.86;99.99
13496;DHT22;6820;49.374;8.452;2023-02-28T20:23:01;3.82;99.99
13496;DHT22;6820;49.374;8.452;2023-02-28T20:27:02;3.82;99.99
13496;DHT22;6820;49.374;8.452;2023-02-28T20:35:16;3.72;99.99
13496;DHT22;6820;49.374;8.452;2023-02-28T20:39:18;3.71;99.99
13496;DHT22;6820;49.374;8.452;2023-02-28T20:43:21;3.68;99.99
13496;DHT22;6820;49.374;8.452;2023-02-28T20:47:23;3.62;99.99
13496;DHT22;6820;49.374;8.452;2023-02-28T20:51:25;3.59;99.99
13496;DHT22;6820;49.374;8.452;2023-02-28T20:55:27;3.53;99.99
13496;DHT22;6820;49.374;8.452;2023-02-28T20:59:28;3.46;99.99
13496;DHT22;6820;49.374;8.452;2023-02-28T21:03:30;3.44;99.99
13496;DHT22;6820;49.374;8.452;2023-02-28T21:07:32;3.39;99.99
13496;DHT22;6820;49.374;8.452;2023-02-28T21:11:34;3.34;99.99
13496;DHT22;6820;49.374;8.452;2023-02-28T21:15:37;3.33;99.99
13496;DHT22;6820;49.374;8.452;2023-02-28T21:19:38;3.26;99.99
13496;DHT22;6820;49.374;8.452;2023-02-28T21:23:40;3.33;99.99
13496;DHT22;6820;49.374;8.452;2023-02-28T21:27:42;3.30;99.99
13496;DHT22;6820;49.374;8.452;2023-02-28T21:31:44;3.26;99.99
13496;DHT22;6820;49.374;8.452;2023-02-28T21:35:46;3.30;99.99
13496;DHT22;6820;49.374;8.452;2023-02-28T21:39:47;3.30;99.99
13496;DHT22;6820;49.374;8.452;2023-02-28T21:43:49;3.26;99.99
13496;DHT22;6820;49.374;8.452;2023-02-28T21:47:51;3.20;99.99
13496;DHT22;6820;49.374;8.452;2023-02-28T21:51:53;3.22;99.99
13496;DHT22;6820;49.374;8.452;2023-02-28T21:55:54;3.22;99.99
13496;DHT22;6820;49.374;8.452;2023-02-28T21:59:56;3.17;99.99
13496;DHT22;6820;49.374;8.452;2023-02-28T22:03:59;3.19;99.99
13496;DHT22;6820;49.374;8.452;2023-02-28T22:08:01;3.12;99.99
13496;DHT22;6820;49.374;8.452;2023-02-28T22:12:03;3.15;99.99
13496;DHT22;6820;49.374;8.452;2023-02-28T22:16:10;3.12;99.99
13496;DHT22;6820;49.374;8.452;2023-02-28T22:20:13;3.12;99.99
13496;DHT22;6820;49.374;8.452;2023-02-28T22:24:15;3.10;99.99
13496;DHT22;6820;49.374;8.452;2023-02-28T22:28:20;3.07;99.99
13496;DHT22;6820;49.374;8.452;2023-02-28T22:32:23;3.04;99.99
13496;DHT22;6820;49.374;8.452;2023-02-28T22:36:25;3.01;99.99
13496;DHT22;6820;49.374;8.452;2023-02-28T22:40:27;2.99;99.99
13496;DHT22;6820;49.374;8.452;2023-02-28T22:44:28;2.97;99.99
13496;DHT22;6820;49.374;8.452;2023-02-28T22:48:30;2.95;99.99
13496;DHT22;6820;49.374;8.452;2023-02-28T22:52:32;2.94;99.99
13496;DHT22;6820;49.374;8.452;2023-02-28T22:56:34;2.92;99.99
13496;DHT22;6820;49.374;8.452;2023-02-28T23:00:36;2.86;99.99
13496;DHT22;6820;49.374;8.452;2023-02-28T23:04:38;2.81;99.99
13496;DHT22;6820;49.374;8.452;2023-02-28T23:08:40;2.79;99.99
13496;DHT22;6820;49.374;8.452;2023-02-28T23:12:43;2.69;99.99
13496;DHT22;6820;49.374;8.452;2023-02-28T23:16:51;2.68;99.99
13496;DHT22;6820;49.374;8.452;2023-02-28T23:20:55;2.65;99.99
13496;DHT22;6820;49.374;8.452;2023-02-28T23:24:57;2.65;99.99
13496;DHT22;6820;49.374;8.452;2023-02-28T23:28:59;2.61;99.99
13496;DHT22;6820;49.374;8.452;2023-02-28T23:33:01;2.58;99.99
13496;DHT22;6820;49.374;8.452;2023-02-28T23:37:03;2.56;99.99
13496;DHT22;6820;49.374;8.452;2023-02-28T23:41:05;2.51;99.99
13496;DHT22;6820;49.374;8.452;2023-02-28T23:45:08;2.50;99.99
13496;DHT22;6820;49.374;8.452;2023-02-28T23:49:10;2.45;99.99
13496;DHT22;6820;49.374;8.452;2023-02-28T23:53:12;2.47;99.99
13496;DHT22;6820;49.374;8.452;2023-02-28T23:57:13;2.44;99.99
